Terminal Aerodrome Forecast
Issued by NWS

Home | Current Version | Previous Version | Text Only | Print | Product List | Glossary On
Versions: 1 2 3 4 5 6 7 8 9 10 11 12 13 14 15 16
000
FTUS45 KRIW 071123
TAFCPR
TAF
KCPR 071123Z 0712/0812 VRB04KT 5SM BR SCT100
     FM071500 VRB05KT P6SM VCFG SCT100
     FM071700 04006KT P6SM SCT060 SCT100
     FM072200 07010KT P6SM VCTS BKN080CB
     FM080300 03007KT P6SM VCSH SCT050 BKN100
     FM080600 04007KT P6SM BKN050=

USA.gov is the U.S. government's official web portal to all federal, state and local government web resources and services.